createdAt,value
2023-03-06T00:00:20.206Z,2.50
2023-03-06T00:02:47.045Z,2.90
2023-03-06T00:05:14.891Z,3.00
2023-03-06T00:07:42.868Z,2.75
2023-03-06T00:10:14.292Z,2.77
2023-03-06T00:12:40.935Z,3.05
2023-03-06T00:15:08.330Z,2.85
2023-03-06T00:17:34.911Z,2.83
2023-03-06T00:20:01.591Z,3.05
2023-03-06T00:22:28.209Z,2.92
2023-03-06T00:24:54.887Z,3.17
2023-03-06T00:27:21.790Z,3.00
2023-03-06T00:29:49.732Z,2.70
2023-03-06T00:32:16.377Z,2.88
2023-03-06T00:34:42.986Z,2.63
2023-03-06T00:37:09.621Z,2.90
2023-03-06T00:39:36.900Z,3.00
2023-03-06T00:42:03.544Z,3.10
2023-03-06T00:44:30.150Z,2.70
2023-03-06T00:46:56.720Z,2.80
2023-03-06T00:49:23.314Z,3.03
2023-03-06T00:51:50.031Z,2.92
2023-03-06T00:54:16.623Z,2.97
2023-03-06T00:56:43.238Z,2.60
2023-03-06T00:59:11.008Z,2.90
2023-03-06T01:01:37.657Z,2.80
2023-03-06T01:04:04.374Z,2.67
2023-03-06T01:06:30.959Z,2.90
2023-03-06T01:08:57.609Z,2.58
2023-03-06T01:11:24.268Z,2.88
2023-03-06T01:13:50.831Z,2.65
2023-03-06T01:16:19.078Z,2.80
2023-03-06T01:18:46.470Z,2.63
2023-03-06T01:21:13.747Z,2.80
2023-03-06T01:23:40.539Z,2.88
2023-03-06T01:26:07.377Z,2.70
2023-03-06T01:28:35.055Z,2.60
2023-03-06T01:31:02.039Z,2.90
2023-03-06T01:33:28.618Z,2.63
2023-03-06T01:35:55.327Z,2.50
2023-03-06T01:38:22.148Z,2.72
2023-03-06T01:40:48.763Z,2.60
2023-03-06T01:43:24.467Z,2.50
2023-03-06T01:45:51.045Z,2.65
2023-03-06T01:48:23.494Z,2.88
2023-03-06T01:50:52.527Z,2.80
2023-03-06T01:53:20.290Z,2.58
2023-03-06T01:55:46.929Z,2.67
2023-03-06T01:58:18.164Z,2.63
2023-03-06T02:00:45.230Z,2.60
2023-03-06T02:03:18.296Z,2.60
2023-03-06T02:05:45.634Z,2.63
2023-03-06T02:08:16.072Z,2.40
2023-03-06T02:10:55.772Z,2.55
2023-03-06T02:13:22.488Z,2.38
2023-03-06T02:15:49.065Z,2.47
2023-03-06T02:18:15.677Z,2.47
2023-03-06T02:20:54.867Z,2.65
2023-03-06T02:23:41.357Z,2.25
2023-03-06T02:26:09.231Z,2.35
2023-03-06T02:28:35.871Z,2.22
2023-03-06T02:31:02.667Z,2.55
2023-03-06T02:33:29.603Z,2.40
2023-03-06T02:36:02.073Z,2.50
2023-03-06T02:38:34.069Z,2.50
2023-03-06T02:41:03.632Z,2.58
2023-03-06T02:43:34.137Z,2.40
2023-03-06T02:46:01.017Z,2.40
2023-03-06T02:48:27.763Z,2.33
2023-03-06T02:50:54.470Z,2.50
2023-03-06T02:53:21.654Z,2.45
2023-03-06T02:55:48.898Z,2.60
2023-03-06T02:58:16.279Z,2.15
2023-03-06T03:00:42.970Z,2.55
2023-03-06T03:03:09.583Z,1.98
2023-03-06T03:05:36.322Z,2.17
2023-03-06T03:08:03.338Z,2.15
2023-03-06T03:10:30.234Z,2.70
2023-03-06T03:12:57.940Z,2.60
2023-03-06T03:15:25.222Z,2.13
2023-03-06T03:17:51.961Z,2.20
2023-03-06T03:20:20.967Z,2.40
2023-03-06T03:22:49.079Z,2.40
2023-03-06T03:25:17.343Z,2.65
2023-03-06T03:27:43.963Z,1.90
2023-03-06T03:30:11.372Z,2.03
2023-03-06T03:32:38.081Z,2.00
2023-03-06T03:35:06.606Z,2.10
2023-03-06T03:37:34.594Z,2.03
2023-03-06T03:40:01.436Z,2.10
2023-03-06T03:42:28.174Z,2.38
2023-03-06T03:44:54.796Z,2.28
2023-03-06T03:47:21.412Z,2.50
2023-03-06T03:49:48.039Z,2.22
2023-03-06T03:52:14.763Z,2.15
2023-03-06T03:54:41.777Z,2.25
2023-03-06T03:57:08.399Z,2.30
2023-03-06T03:59:34.969Z,2.22
2023-03-06T04:02:04.598Z,1.88
2023-03-06T04:04:31.712Z,2.28
2023-03-06T04:06:58.369Z,2.05
2023-03-06T04:09:24.962Z,1.90
2023-03-06T04:11:51.599Z,2.20
2023-03-06T04:14:18.155Z,2.30
2023-03-06T04:16:44.748Z,2.03
2023-03-06T04:19:11.657Z,2.50
2023-03-06T04:21:38.644Z,2.00
2023-03-06T04:24:05.787Z,1.90
2023-03-06T04:26:32.423Z,2.15
2023-03-06T04:28:59.326Z,2.03
2023-03-06T04:31:25.940Z,2.28
2023-03-06T04:33:52.564Z,2.13
2023-03-06T04:36:30.001Z,2.30
2023-03-06T04:38:56.816Z,2.10
2023-03-06T04:41:23.611Z,2.10
2023-03-06T04:43:50.516Z,2.28
2023-03-06T04:46:17.513Z,1.90
2023-03-06T04:48:44.236Z,2.10
2023-03-06T04:51:12.458Z,1.90
2023-03-06T04:53:39.043Z,2.17
2023-03-06T04:56:06.219Z,1.85
2023-03-06T04:58:32.783Z,2.20
2023-03-06T05:00:59.427Z,2.22
2023-03-06T05:03:26.032Z,2.08
2023-03-06T05:05:52.620Z,2.38
2023-03-06T05:08:19.703Z,1.98
2023-03-06T05:10:47.255Z,2.10
2023-03-06T05:13:13.860Z,1.90
2023-03-06T05:15:41.929Z,2.00
2023-03-06T05:18:08.511Z,1.80
2023-03-06T05:20:35.162Z,2.08
2023-03-06T05:23:01.912Z,2.03
2023-03-06T05:25:28.514Z,1.90
2023-03-06T05:27:55.102Z,2.00
2023-03-06T05:30:23.142Z,2.25
2023-03-06T05:32:50.541Z,2.03
2023-03-06T05:35:22.477Z,1.70
2023-03-06T05:37:49.898Z,1.65
2023-03-06T05:40:17.282Z,2.05
2023-03-06T05:42:44.210Z,1.90
2023-03-06T05:45:11.412Z,2.15
2023-03-06T05:47:38.032Z,1.80
2023-03-06T05:50:05.619Z,2.00
2023-03-06T05:52:32.169Z,2.03
2023-03-06T05:54:58.704Z,2.20
2023-03-06T05:57:25.283Z,1.75
2023-03-06T05:59:51.970Z,1.73
2023-03-06T06:02:19.222Z,1.92
2023-03-06T06:04:45.881Z,1.90
2023-03-06T06:07:17.083Z,1.90
2023-03-06T06:09:45.567Z,1.75
2023-03-06T06:12:12.634Z,2.30
2023-03-06T06:14:39.262Z,2.13
2023-03-06T06:17:05.925Z,2.08
2023-03-06T06:19:32.624Z,2.13
2023-03-06T06:21:59.412Z,2.60
2023-03-06T06:24:26.596Z,2.53
2023-03-06T06:26:55.343Z,3.10
2023-03-06T06:29:22.584Z,2.58
2023-03-06T06:31:49.525Z,2.42
2023-03-06T06:34:16.306Z,3.22
2023-03-06T06:36:43.559Z,2.83
2023-03-06T06:39:13.442Z,2.70
2023-03-06T06:41:55.493Z,3.28
2023-03-06T06:44:26.311Z,3.03
2023-03-06T06:49:40.304Z,3.00
2023-03-06T06:52:07.269Z,3.00
2023-03-06T06:54:34.704Z,2.92
2023-03-06T06:57:01.527Z,2.92
2023-03-06T06:59:28.135Z,2.47
2023-03-06T07:01:54.716Z,2.42
2023-03-06T07:04:21.446Z,2.45
2023-03-06T07:06:48.271Z,2.70
2023-03-06T07:09:14.975Z,2.70
2023-03-06T07:11:42.129Z,2.58
2023-03-06T07:14:08.877Z,2.47
2023-03-06T07:16:35.656Z,2.50
2023-03-06T07:19:02.238Z,2.00
2023-03-06T07:21:28.820Z,2.25
2023-03-06T07:23:57.289Z,2.83
2023-03-06T07:26:25.362Z,2.38
2023-03-06T07:28:55.394Z,2.17
2023-03-06T07:31:24.491Z,2.33
2023-03-06T07:33:53.069Z,2.42
2023-03-06T07:36:20.618Z,2.50
2023-03-06T07:38:47.455Z,2.15
2023-03-06T07:41:16.354Z,2.58
2023-03-06T07:43:44.211Z,2.20
2023-03-06T07:46:10.978Z,2.10
2023-03-06T07:48:38.024Z,2.58
2023-03-06T07:51:07.418Z,2.10
2023-03-06T07:53:34.972Z,2.17
2023-03-06T07:56:08.484Z,2.00
2023-03-06T07:58:40.441Z,2.20
2023-03-06T08:01:09.496Z,2.30
2023-03-06T08:03:36.463Z,2.15
2023-03-06T08:06:29.270Z,2.03
2023-03-06T08:08:56.692Z,2.20
2023-03-06T08:11:26.094Z,1.92
2023-03-06T08:13:54.334Z,2.13
2023-03-06T08:16:22.599Z,2.20
2023-03-06T08:18:49.358Z,2.22
2023-03-06T08:21:20.559Z,1.67
2023-03-06T08:23:47.967Z,2.13
2023-03-06T08:26:17.220Z,2.20
2023-03-06T08:28:44.644Z,2.22
2023-03-06T08:31:38.776Z,1.92
2023-03-06T08:34:08.524Z,1.95
2023-03-06T08:36:35.052Z,2.28
2023-03-06T08:39:02.560Z,1.92
2023-03-06T08:41:30.218Z,2.10
2023-03-06T08:43:57.030Z,2.35
2023-03-06T08:46:26.166Z,2.13
2023-03-06T08:48:53.065Z,2.08
2023-03-06T08:51:20.751Z,1.88
2023-03-06T08:53:48.255Z,2.22
2023-03-06T08:56:23.216Z,1.70
2023-03-06T08:58:50.501Z,2.15
2023-03-06T09:01:20.310Z,2.05
2023-03-06T09:03:47.131Z,1.98
2023-03-06T09:06:14.594Z,1.83
2023-03-06T09:08:43.842Z,1.88
2023-03-06T09:11:11.843Z,2.22
2023-03-06T09:13:38.797Z,1.92
2023-03-06T09:16:05.724Z,2.30
2023-03-06T09:18:32.308Z,2.00
2023-03-06T09:20:58.928Z,2.00
2023-03-06T09:23:25.632Z,1.83
2023-03-06T09:25:56.860Z,2.30
2023-03-06T09:28:23.926Z,1.67
2023-03-06T09:30:51.311Z,2.10
2023-03-06T09:33:18.663Z,1.83
2023-03-06T09:35:56.842Z,1.98
2023-03-06T09:38:26.481Z,1.95
2023-03-06T09:41:00.014Z,1.90
2023-03-06T09:43:35.925Z,2.10
2023-03-06T09:46:35.057Z,1.95
2023-03-06T09:49:10.282Z,2.15
2023-03-06T09:51:50.670Z,1.80
2023-03-06T09:54:20.083Z,1.75
2023-03-06T09:56:50.121Z,1.80
2023-03-06T09:59:24.029Z,1.70
2023-03-06T10:02:00.081Z,1.90
2023-03-06T10:04:44.380Z,1.77
2023-03-06T10:07:15.502Z,1.83
2023-03-06T10:09:45.154Z,1.60
2023-03-06T10:12:25.514Z,2.03
2023-03-06T10:15:16.834Z,1.85
2023-03-06T10:17:44.524Z,1.88
2023-03-06T10:20:22.652Z,1.95
2023-03-06T10:23:11.126Z,1.98
2023-03-06T10:26:01.434Z,1.77
2023-03-06T10:28:36.254Z,1.90
2023-03-06T10:31:20.847Z,2.03
2023-03-06T10:33:55.500Z,1.60
2023-03-06T10:36:27.883Z,2.00
2023-03-06T10:38:57.048Z,2.00
2023-03-06T10:41:35.765Z,1.88
2023-03-06T10:44:05.283Z,1.70
2023-03-06T10:46:36.340Z,1.63
2023-03-06T10:49:21.560Z,1.83
2023-03-06T10:51:59.100Z,1.80
2023-03-06T10:54:26.885Z,1.90
2023-03-06T10:56:53.522Z,1.30
2023-03-06T10:59:26.483Z,1.70
2023-03-06T11:01:56.342Z,1.75
2023-03-06T11:04:26.898Z,1.60
2023-03-06T11:07:38.127Z,1.50
2023-03-06T11:10:18.921Z,1.70
2023-03-06T11:12:57.134Z,1.58
2023-03-06T11:15:25.359Z,1.80
2023-03-06T11:18:20.162Z,1.52
2023-03-06T11:20:55.280Z,1.88
2023-03-06T11:23:37.159Z,1.73
2023-03-06T11:26:16.753Z,1.88
2023-03-06T11:29:02.005Z,1.88
2023-03-06T11:31:33.368Z,1.58
2023-03-06T11:34:11.862Z,1.65
2023-03-06T11:36:54.001Z,1.70
2023-03-06T11:39:49.296Z,1.88
2023-03-06T11:42:28.051Z,1.77
2023-03-06T11:45:21.916Z,1.50
2023-03-06T11:48:14.671Z,1.75
2023-03-06T11:50:47.863Z,1.70
2023-03-06T11:53:31.484Z,1.60
2023-03-06T11:56:19.663Z,1.70
2023-03-06T11:59:18.632Z,1.80
2023-03-06T12:02:03.728Z,1.73
2023-03-06T12:05:35.308Z,2.00
2023-03-06T12:08:28.976Z,1.80
2023-03-06T12:11:09.964Z,1.58
2023-03-06T12:14:03.970Z,1.75
2023-03-06T12:17:05.578Z,1.65
2023-03-06T12:19:52.083Z,1.80
2023-03-06T12:22:53.352Z,1.90
2023-03-06T12:25:36.956Z,1.70
2023-03-06T12:28:23.007Z,1.70
2023-03-06T12:31:12.527Z,1.70
2023-03-06T12:34:13.162Z,1.67
2023-03-06T12:36:42.689Z,1.40
2023-03-06T12:39:48.192Z,1.60
2023-03-06T12:42:54.227Z,2.25
2023-03-06T12:45:33.055Z,1.70
2023-03-06T12:48:00.282Z,1.92
2023-03-06T12:50:31.622Z,1.98
2023-03-06T12:53:02.999Z,1.80
2023-03-06T12:55:37.959Z,1.77
2023-03-06T12:58:29.833Z,1.85
2023-03-06T13:01:33.499Z,1.60
2023-03-06T13:04:32.382Z,1.52
2023-03-06T13:07:11.608Z,1.80
2023-03-06T13:10:02.828Z,1.55
2023-03-06T13:12:49.383Z,1.75
2023-03-06T13:15:34.409Z,1.80
2023-03-06T13:18:01.680Z,1.70
2023-03-06T13:20:35.227Z,1.58
2023-03-06T13:23:33.189Z,1.60
2023-03-06T13:26:02.358Z,1.80
2023-03-06T13:28:48.633Z,1.63
2023-03-06T13:31:28.124Z,1.77
2023-03-06T13:33:58.772Z,1.58
2023-03-06T13:36:29.554Z,1.70
2023-03-06T13:38:57.831Z,1.60
2023-03-06T13:41:27.199Z,1.50
2023-03-06T13:43:56.406Z,1.55
2023-03-06T13:46:37.700Z,1.48
2023-03-06T13:49:13.134Z,1.37
2023-03-06T13:52:06.262Z,1.55
2023-03-06T13:54:52.503Z,1.60
2023-03-06T13:57:40.930Z,1.60
2023-03-06T14:00:31.653Z,1.38
2023-03-06T14:03:25.699Z,1.75
2023-03-06T14:05:52.399Z,1.60
2023-03-06T14:08:31.484Z,1.40
2023-03-06T14:11:02.130Z,1.60
2023-03-06T14:13:47.565Z,1.60
2023-03-06T14:16:29.082Z,1.48
2023-03-06T14:18:59.745Z,1.75
2023-03-06T14:21:31.513Z,1.70
2023-03-06T14:24:03.818Z,1.33
2023-03-06T14:26:41.195Z,1.38
2023-03-06T14:29:23.794Z,1.50
2023-03-06T14:31:53.106Z,1.60
2023-03-06T14:34:27.951Z,1.30
2023-03-06T14:36:58.302Z,1.40
2023-03-06T14:39:43.473Z,1.60
2023-03-06T14:42:25.245Z,1.42
2023-03-06T14:45:18.487Z,1.45
2023-03-06T14:47:52.233Z,1.48
2023-03-06T14:50:23.163Z,1.30
2023-03-06T14:52:53.768Z,1.45
2023-03-06T14:55:24.264Z,1.70
2023-03-06T14:58:00.238Z,1.50
2023-03-06T15:00:35.539Z,1.20
2023-03-06T15:03:06.733Z,1.60
2023-03-06T15:05:33.925Z,1.30
2023-03-06T15:08:06.699Z,1.48
2023-03-06T15:10:35.719Z,1.40
2023-03-06T15:13:22.255Z,1.40
2023-03-06T15:15:59.115Z,1.48
2023-03-06T15:18:28.690Z,1.50
2023-03-06T15:21:24.233Z,1.20
2023-03-06T15:23:53.079Z,1.50
2023-03-06T15:26:21.754Z,1.48
2023-03-06T15:29:22.801Z,1.42
2023-03-06T15:31:49.444Z,1.40
2023-03-06T15:34:23.170Z,1.55
2023-03-06T15:36:55.594Z,1.20
2023-03-06T15:39:34.722Z,1.30
2023-03-06T15:42:14.854Z,1.33
2023-03-06T15:44:41.732Z,1.42
2023-03-06T15:47:12.206Z,1.38
2023-03-06T15:49:39.784Z,1.27
2023-03-06T15:52:07.764Z,1.30
2023-03-06T15:54:34.577Z,1.10
2023-03-06T15:57:05.160Z,1.30
2023-03-06T15:59:36.602Z,1.45
2023-03-06T16:02:15.318Z,1.10
2023-03-06T16:04:42.074Z,1.30
2023-03-06T16:07:08.793Z,1.33
2023-03-06T16:09:35.476Z,1.30
2023-03-06T16:12:02.107Z,1.40
2023-03-06T16:14:28.734Z,1.33
2023-03-06T16:16:56.458Z,1.40
2023-03-06T16:19:27.325Z,1.55
2023-03-06T16:21:55.618Z,1.30
2023-03-06T16:24:23.396Z,1.33
2023-03-06T16:26:51.707Z,1.40
2023-03-06T16:29:21.021Z,1.50
2023-03-06T16:31:48.104Z,1.48
2023-03-06T16:34:15.160Z,7.03
2023-03-06T16:36:41.867Z,7.75
2023-03-06T16:39:19.590Z,8.50
2023-03-06T16:41:52.267Z,6.55
2023-03-06T16:44:19.794Z,4.87
2023-03-06T16:46:48.275Z,3.93
2023-03-06T16:49:17.189Z,3.87
2023-03-06T16:51:44.364Z,3.13
2023-03-06T16:54:11.644Z,3.35
2023-03-06T16:56:38.406Z,2.55
2023-03-06T16:59:05.195Z,2.65
2023-03-06T17:01:31.911Z,2.35
2023-03-06T17:03:58.799Z,2.42
2023-03-06T17:08:52.305Z,5.73
2023-03-06T17:11:22.223Z,4.78
2023-03-06T17:13:50.134Z,3.60
2023-03-06T17:16:17.064Z,3.53
2023-03-06T17:18:45.130Z,3.00
2023-03-06T17:21:13.004Z,2.87
2023-03-06T17:23:39.598Z,2.35
2023-03-06T17:26:20.066Z,2.47
2023-03-06T17:28:47.366Z,2.20
2023-03-06T17:31:22.543Z,2.50
2023-03-06T17:33:49.737Z,2.58
2023-03-06T17:36:16.552Z,2.08
2023-03-06T17:38:43.234Z,1.75
2023-03-06T17:43:37.954Z,1.80
2023-03-06T17:58:25.953Z,1.80
2023-03-06T18:00:52.829Z,1.52
2023-03-06T18:03:19.583Z,1.60
2023-03-06T18:05:46.188Z,1.50
2023-03-06T18:08:13.064Z,1.38
2023-03-06T18:10:41.519Z,1.60
2023-03-06T18:13:08.774Z,1.73
2023-03-06T18:15:39.452Z,1.80
2023-03-06T18:18:06.835Z,1.60
2023-03-06T18:20:33.593Z,1.50
2023-03-06T18:23:03.393Z,1.80
2023-03-06T18:25:31.332Z,1.70
2023-03-06T18:28:00.719Z,1.70
2023-03-06T18:30:27.489Z,1.52
2023-03-06T18:32:54.706Z,1.75
2023-03-06T18:35:21.716Z,1.65
2023-03-06T18:37:48.484Z,1.52
2023-03-06T18:40:15.220Z,1.63
2023-03-06T18:42:42.173Z,1.60
2023-03-06T18:45:09.789Z,1.65
2023-03-06T18:47:36.487Z,1.50
2023-03-06T18:50:03.173Z,1.85
2023-03-06T18:52:29.750Z,1.40
2023-03-06T18:54:56.335Z,1.52
2023-03-06T18:57:22.921Z,1.50
2023-03-06T18:59:49.979Z,1.55
2023-03-06T19:02:16.966Z,1.40
2023-03-06T19:04:43.537Z,1.45
2023-03-06T19:07:10.157Z,1.35
2023-03-06T19:09:36.785Z,1.60
2023-03-06T19:12:03.610Z,1.50
2023-03-06T19:14:30.330Z,1.35
2023-03-06T19:16:56.949Z,1.60
2023-03-06T19:19:26.794Z,1.40
2023-03-06T19:21:53.745Z,1.42
2023-03-06T19:24:20.378Z,1.17
2023-03-06T19:26:47.103Z,1.95
2023-03-06T19:29:13.725Z,1.90
2023-03-06T19:31:41.253Z,1.60
2023-03-06T19:34:08.576Z,1.60
2023-03-06T19:36:35.390Z,1.42
2023-03-06T19:39:04.375Z,1.30
2023-03-06T19:41:34.398Z,1.42
2023-03-06T19:44:03.160Z,1.30
2023-03-06T19:46:29.992Z,1.52
2023-03-06T19:48:59.121Z,1.45
2023-03-06T19:51:26.597Z,1.60
2023-03-06T19:53:53.639Z,1.60
2023-03-06T19:56:22.756Z,1.30
2023-03-06T19:58:49.464Z,1.40
2023-03-06T20:01:18.736Z,1.60
2023-03-06T20:03:45.791Z,1.70
2023-03-06T20:06:15.435Z,1.23
2023-03-06T20:08:43.085Z,1.50
2023-03-06T20:11:21.666Z,1.50
2023-03-06T20:13:48.905Z,1.52
2023-03-06T20:16:16.530Z,1.80
2023-03-06T20:18:43.488Z,1.50
2023-03-06T20:21:10.099Z,1.83
2023-03-06T20:23:36.742Z,1.67
2023-03-06T20:26:09.604Z,1.50
2023-03-06T20:28:38.682Z,1.50
2023-03-06T20:31:17.951Z,1.63
2023-03-06T20:33:46.232Z,1.63
2023-03-06T20:36:18.756Z,1.67
2023-03-06T20:38:45.955Z,1.63
2023-03-06T20:41:22.154Z,1.70
2023-03-06T20:43:49.093Z,1.73
2023-03-06T20:46:16.115Z,1.90
2023-03-06T20:48:43.394Z,2.95
2023-03-06T20:51:19.879Z,2.45
2023-03-06T20:53:47.839Z,2.00
2023-03-06T20:56:16.391Z,2.03
2023-03-06T20:58:43.007Z,1.70
2023-03-06T21:01:10.060Z,1.73
2023-03-06T21:03:36.664Z,2.00
2023-03-06T21:06:03.356Z,1.80
2023-03-06T21:08:31.211Z,1.67
2023-03-06T21:10:57.789Z,1.60
2023-03-06T21:13:24.421Z,1.73
2023-03-06T21:15:51.019Z,1.75
2023-03-06T21:18:17.833Z,1.77
2023-03-06T21:20:44.468Z,1.45
2023-03-06T21:23:11.088Z,1.70
2023-03-06T21:25:50.445Z,1.42
2023-03-06T21:28:17.885Z,1.55
2023-03-06T21:30:45.644Z,1.33
2023-03-06T21:33:13.232Z,1.40
2023-03-06T21:35:41.159Z,1.30
2023-03-06T21:38:08.563Z,1.70
2023-03-06T21:40:35.360Z,1.40
2023-03-06T21:43:02.010Z,1.40
2023-03-06T21:45:30.337Z,1.50
2023-03-06T21:47:58.134Z,1.70
2023-03-06T21:50:25.648Z,1.42
2023-03-06T21:52:53.041Z,1.55
2023-03-06T21:55:19.802Z,1.47
2023-03-06T21:57:53.958Z,1.40
2023-03-06T22:00:23.092Z,1.50
2023-03-06T22:02:50.435Z,1.45
2023-03-06T22:05:17.082Z,1.50
2023-03-06T22:07:43.679Z,1.70
2023-03-06T22:10:12.137Z,1.60
2023-03-06T22:12:39.203Z,1.52
2023-03-06T22:15:06.841Z,1.40
2023-03-06T22:17:33.475Z,1.30
2023-03-06T22:20:00.039Z,1.33
2023-03-06T22:22:27.146Z,1.10
2023-03-06T22:24:53.753Z,1.15
2023-03-06T22:27:20.476Z,1.25
2023-03-06T22:29:47.033Z,1.40
2023-03-06T22:32:13.765Z,1.40
2023-03-06T22:34:40.369Z,1.25
2023-03-06T22:37:06.948Z,1.30
2023-03-06T22:39:33.513Z,1.25
2023-03-06T22:42:00.101Z,1.10
2023-03-06T22:44:26.643Z,1.02
2023-03-06T22:49:19.993Z,1.00
2023-03-06T22:51:46.895Z,1.40
2023-03-06T22:54:13.504Z,1.15
2023-03-06T22:56:40.080Z,1.08
2023-03-06T22:59:06.641Z,1.35
2023-03-06T23:01:34.562Z,1.27
2023-03-06T23:04:03.521Z,1.08
2023-03-06T23:06:33.817Z,1.17
2023-03-06T23:09:03.537Z,1.20
2023-03-06T23:11:30.474Z,1.20
2023-03-06T23:13:57.473Z,1.40
2023-03-06T23:16:24.889Z,1.10
2023-03-06T23:18:53.023Z,1.02
2023-03-06T23:21:21.656Z,1.10
2023-03-06T23:23:50.860Z,1.02
2023-03-06T23:26:19.860Z,1.00
2023-03-06T23:28:46.690Z,1.20
2023-03-06T23:31:15.650Z,1.20
2023-03-06T23:33:42.560Z,1.20
2023-03-06T23:36:11.952Z,1.20
2023-03-06T23:38:39.124Z,0.90
2023-03-06T23:41:16.975Z,1.30
2023-03-06T23:43:44.432Z,1.50
2023-03-06T23:46:11.707Z,1.08
2023-03-06T23:48:40.578Z,0.98
2023-03-06T23:51:17.830Z,1.30
2023-03-06T23:53:46.003Z,1.25
2023-03-06T23:56:13.021Z,0.90
2023-03-06T23:58:39.945Z,1.10
